createdAt,value
2022-11-24T00:01:59.106Z,2.89
2022-11-24T00:04:28.493Z,2.85
2022-11-24T00:06:57.534Z,2.87
2022-11-24T00:09:26.954Z,2.86
2022-11-24T00:11:55.996Z,2.88
2022-11-24T00:14:25.402Z,2.88
2022-11-24T00:16:55.872Z,2.88
2022-11-24T00:19:25.337Z,2.91
2022-11-24T00:21:54.378Z,2.91
2022-11-24T00:24:23.795Z,2.90
2022-11-24T00:26:52.837Z,2.87
2022-11-24T00:29:22.246Z,2.87
2022-11-24T00:31:51.248Z,2.83
2022-11-24T00:34:22.087Z,2.84
2022-11-24T00:36:51.150Z,2.83
2022-11-24T00:39:20.553Z,2.82
2022-11-24T00:41:49.598Z,2.81
2022-11-24T00:44:19.029Z,2.81
2022-11-24T00:46:48.265Z,2.81
2022-11-24T00:49:17.769Z,2.82
2022-11-24T00:51:48.242Z,2.82
2022-11-24T00:54:18.363Z,2.82
2022-11-24T00:56:55.816Z,2.81
2022-11-24T00:59:33.015Z,2.81
2022-11-24T01:02:02.097Z,2.80
2022-11-24T01:04:31.861Z,2.79
2022-11-24T01:07:02.538Z,2.81
2022-11-24T01:09:36.137Z,2.78
2022-11-24T01:12:09.063Z,2.80
2022-11-24T01:14:38.552Z,2.78
2022-11-24T01:17:07.615Z,2.76
2022-11-24T01:19:36.968Z,2.74
2022-11-24T01:22:07.410Z,2.73
2022-11-24T01:24:36.845Z,2.70
2022-11-24T01:27:06.014Z,2.70
2022-11-24T01:29:35.395Z,2.70
2022-11-24T01:32:04.514Z,2.68
2022-11-24T01:34:34.104Z,2.69
2022-11-24T01:37:03.247Z,2.67
2022-11-24T01:39:34.123Z,2.67
2022-11-24T01:42:03.220Z,2.69
2022-11-24T01:44:33.088Z,2.67
2022-11-24T01:47:02.408Z,2.68
2022-11-24T01:49:35.852Z,2.65
2022-11-24T01:52:07.026Z,2.65
2022-11-24T01:54:38.523Z,2.64
2022-11-24T01:57:08.599Z,2.63
2022-11-24T01:59:38.119Z,2.61
2022-11-24T02:02:07.270Z,2.60
2022-11-24T02:04:36.931Z,2.59
2022-11-24T02:07:16.356Z,2.59
2022-11-24T02:10:00.636Z,2.59
2022-11-24T02:12:53.666Z,2.57
2022-11-24T02:15:25.790Z,2.54
2022-11-24T02:17:54.820Z,2.57
2022-11-24T02:20:24.310Z,2.54
2022-11-24T02:22:55.607Z,2.55
2022-11-24T02:25:28.888Z,2.54
2022-11-24T02:27:59.583Z,2.53
2022-11-24T02:30:29.147Z,2.50
2022-11-24T02:32:58.187Z,2.49
2022-11-24T02:35:27.667Z,2.49
2022-11-24T02:37:56.822Z,2.49
2022-11-24T02:40:27.023Z,2.49
2022-11-24T02:42:56.497Z,2.45
2022-11-24T02:45:27.335Z,2.46
2022-11-24T02:47:56.387Z,2.47
2022-11-24T02:50:25.851Z,2.46
2022-11-24T02:52:54.950Z,2.47
2022-11-24T02:55:25.002Z,2.49
2022-11-24T02:57:54.036Z,2.49
2022-11-24T03:00:23.537Z,2.49
2022-11-24T03:02:54.074Z,2.48
2022-11-24T03:05:23.746Z,2.48
2022-11-24T03:07:52.846Z,2.47
2022-11-24T03:10:22.210Z,2.46
2022-11-24T03:12:51.315Z,2.47
2022-11-24T03:15:20.630Z,2.44
2022-11-24T03:17:49.713Z,2.45
2022-11-24T03:20:20.721Z,2.46
2022-11-24T03:22:49.883Z,2.48
2022-11-24T03:25:19.352Z,2.46
2022-11-24T03:27:48.457Z,2.45
2022-11-24T03:30:18.112Z,2.45
2022-11-24T03:32:47.202Z,2.45
2022-11-24T03:35:16.606Z,2.43
2022-11-24T03:37:47.052Z,2.42
2022-11-24T03:40:18.068Z,2.42
2022-11-24T03:42:47.220Z,2.42
2022-11-24T03:45:44.375Z,2.43
2022-11-24T03:48:06.020Z,2.44
2022-11-24T03:50:35.455Z,2.41
2022-11-24T03:53:05.859Z,2.41
2022-11-24T03:55:35.405Z,2.41
2022-11-24T03:58:04.463Z,2.41
2022-11-24T04:00:33.823Z,2.42
2022-11-24T04:03:02.995Z,2.42
2022-11-24T04:05:33.358Z,2.43
2022-11-24T04:08:03.820Z,2.41
2022-11-24T04:10:37.010Z,2.43
2022-11-24T04:13:05.450Z,2.43
2022-11-24T04:15:34.784Z,2.45
2022-11-24T04:18:03.858Z,2.42
2022-11-24T04:20:33.414Z,2.44
2022-11-24T04:23:02.524Z,2.44
2022-11-24T04:25:31.937Z,2.45
2022-11-24T04:28:02.550Z,2.44
2022-11-24T04:30:31.873Z,2.43
2022-11-24T04:33:00.967Z,2.43
2022-11-24T04:35:30.606Z,2.40
2022-11-24T04:38:03.219Z,2.43
2022-11-24T04:40:32.611Z,2.43
2022-11-24T04:43:03.121Z,2.40
2022-11-24T04:45:32.448Z,2.41
2022-11-24T04:48:01.555Z,2.42
2022-11-24T04:50:31.063Z,2.40
2022-11-24T04:53:00.189Z,2.42
2022-11-24T04:55:29.551Z,2.40
2022-11-24T04:57:58.590Z,2.41
2022-11-24T05:00:29.379Z,2.39
2022-11-24T05:02:58.695Z,2.38
2022-11-24T05:05:28.110Z,2.37
2022-11-24T05:07:57.346Z,2.33
2022-11-24T05:10:38.915Z,2.32
2022-11-24T05:13:08.443Z,2.32
2022-11-24T05:15:39.922Z,2.31
2022-11-24T05:18:09.559Z,2.30
2022-11-24T05:20:39.018Z,2.31
2022-11-24T05:23:08.578Z,2.30
2022-11-24T05:25:38.137Z,2.33
2022-11-24T05:28:08.917Z,2.34
2022-11-24T05:30:40.272Z,2.32
2022-11-24T05:33:10.666Z,2.35
2022-11-24T05:35:40.133Z,2.32
2022-11-24T05:38:09.371Z,2.33
2022-11-24T05:40:39.008Z,2.34
2022-11-24T05:43:11.467Z,2.32
2022-11-24T05:45:42.330Z,2.32
2022-11-24T05:48:11.890Z,2.33
2022-11-24T05:50:41.352Z,2.32
2022-11-24T05:53:11.015Z,2.34
2022-11-24T05:55:40.550Z,2.34
2022-11-24T05:58:09.999Z,2.34
2022-11-24T06:00:39.412Z,2.36
2022-11-24T06:03:10.041Z,2.36
2022-11-24T06:05:39.829Z,2.37
2022-11-24T06:08:08.870Z,2.37
2022-11-24T06:10:38.348Z,2.40
2022-11-24T06:13:07.999Z,2.41
2022-11-24T06:15:37.956Z,2.41
2022-11-24T06:18:07.231Z,2.42
2022-11-24T06:20:38.152Z,2.40
2022-11-24T06:23:07.186Z,2.43
2022-11-24T06:25:36.634Z,2.43
2022-11-24T06:28:06.929Z,2.42
2022-11-24T06:30:36.289Z,2.45
2022-11-24T06:33:05.338Z,2.44
2022-11-24T06:35:34.824Z,2.46
2022-11-24T06:38:05.355Z,2.44
2022-11-24T06:40:34.926Z,2.45
2022-11-24T06:43:04.068Z,2.45
2022-11-24T06:45:33.691Z,2.45
2022-11-24T06:48:02.805Z,2.46
2022-11-24T06:50:33.883Z,2.46
2022-11-24T06:53:03.115Z,2.45
2022-11-24T06:55:34.061Z,2.38
2022-11-24T06:58:03.141Z,2.39
2022-11-24T07:00:33.015Z,2.38
2022-11-24T07:03:02.337Z,2.40
2022-11-24T07:05:32.279Z,2.42
2022-11-24T07:08:01.637Z,2.40
2022-11-24T07:10:31.078Z,2.41
2022-11-24T07:13:03.909Z,2.42
2022-11-24T07:15:33.336Z,2.41
2022-11-24T07:18:02.345Z,2.43
2022-11-24T07:20:31.785Z,2.45
2022-11-24T07:23:00.808Z,2.45
2022-11-24T07:25:30.190Z,2.46
2022-11-24T07:27:59.267Z,2.48
2022-11-24T07:30:30.094Z,2.47
2022-11-24T07:33:02.266Z,2.49
2022-11-24T07:35:31.811Z,2.48
2022-11-24T07:38:00.940Z,2.51
2022-11-24T07:40:30.450Z,2.51
2022-11-24T07:43:01.388Z,2.51
2022-11-24T07:45:32.298Z,2.54
2022-11-24T07:48:01.454Z,2.54
2022-11-24T07:50:31.022Z,2.53
2022-11-24T07:53:02.316Z,2.52
2022-11-24T07:55:31.700Z,2.51
2022-11-24T07:58:01.271Z,2.54
2022-11-24T08:00:32.357Z,2.54
2022-11-24T08:03:01.433Z,2.55
2022-11-24T08:05:31.040Z,2.55
2022-11-24T08:08:01.106Z,2.58
2022-11-24T08:10:30.576Z,2.58
2022-11-24T08:13:01.226Z,2.55
2022-11-24T08:15:32.187Z,2.54
2022-11-24T08:18:02.336Z,2.58
2022-11-24T08:20:31.820Z,2.57
2022-11-24T08:23:01.100Z,2.58
2022-11-24T08:25:32.667Z,2.60
2022-11-24T08:28:02.176Z,2.58
2022-11-24T08:30:33.145Z,2.59
2022-11-24T08:33:02.417Z,2.57
2022-11-24T08:35:31.870Z,2.55
2022-11-24T08:38:04.773Z,2.58
2022-11-24T08:40:34.628Z,2.61
2022-11-24T08:43:03.902Z,2.63
2022-11-24T08:45:39.867Z,2.63
2022-11-24T08:48:10.697Z,2.65
2022-11-24T08:50:40.306Z,2.66
2022-11-24T08:53:09.331Z,2.66
2022-11-24T08:55:38.786Z,2.66
2022-11-24T08:58:07.842Z,2.64
2022-11-24T09:00:38.811Z,2.67
2022-11-24T09:03:07.901Z,2.68
2022-11-24T09:05:51.878Z,2.70
2022-11-24T09:08:22.020Z,2.71
2022-11-24T09:10:51.640Z,2.71
2022-11-24T09:13:43.517Z,2.70
2022-11-24T09:16:14.955Z,2.73
2022-11-24T09:18:44.043Z,2.74
2022-11-24T09:21:13.812Z,2.73
2022-11-24T09:23:43.054Z,2.73
2022-11-24T09:26:13.320Z,2.75
2022-11-24T09:28:42.572Z,2.76
2022-11-24T09:31:12.964Z,2.76
2022-11-24T09:33:46.849Z,2.78
2022-11-24T09:36:16.370Z,2.79
2022-11-24T09:38:45.408Z,2.80
2022-11-24T09:41:20.509Z,2.78
2022-11-24T09:43:50.542Z,2.81
2022-11-24T09:46:20.444Z,2.83
2022-11-24T09:48:52.494Z,2.83
2022-11-24T09:51:25.098Z,2.85
2022-11-24T09:54:03.031Z,2.83
2022-11-24T09:56:33.459Z,2.86
2022-11-24T09:59:03.922Z,2.86
2022-11-24T10:01:33.937Z,2.84
2022-11-24T10:04:06.566Z,2.85
2022-11-24T10:06:38.907Z,2.88
2022-11-24T10:09:13.079Z,2.87
2022-11-24T10:11:44.800Z,2.91
2022-11-24T10:14:20.625Z,2.91
2022-11-24T10:16:51.512Z,2.91
2022-11-24T10:19:33.894Z,2.91
2022-11-24T10:22:10.158Z,2.95
2022-11-24T10:24:52.808Z,2.96
2022-11-24T10:27:23.632Z,2.96
2022-11-24T10:29:53.072Z,2.99
2022-11-24T10:32:23.636Z,2.97
2022-11-24T10:34:54.074Z,2.97
2022-11-24T10:37:24.145Z,2.98
2022-11-24T10:39:59.887Z,3.00
2022-11-24T10:42:30.126Z,2.99
2022-11-24T10:45:02.467Z,2.98
2022-11-24T10:47:32.496Z,2.97
2022-11-24T10:50:03.558Z,2.96
2022-11-24T10:52:33.922Z,2.97
2022-11-24T10:55:03.730Z,2.97
2022-11-24T10:57:33.723Z,2.99
2022-11-24T11:00:03.691Z,2.99
2022-11-24T11:02:34.885Z,2.98
2022-11-24T11:05:22.437Z,2.98
2022-11-24T11:07:53.303Z,2.98
2022-11-24T11:10:23.396Z,3.00
2022-11-24T11:12:52.780Z,3.02
2022-11-24T11:15:23.212Z,3.00
2022-11-24T11:17:57.507Z,3.03
2022-11-24T11:20:29.056Z,3.03
2022-11-24T11:23:00.369Z,3.06
2022-11-24T11:25:30.882Z,3.08
2022-11-24T11:28:20.872Z,3.08
2022-11-24T11:31:16.654Z,3.06
2022-11-24T11:34:03.753Z,3.07
2022-11-24T11:36:33.694Z,3.06
2022-11-24T11:39:05.251Z,3.07
2022-11-24T11:41:35.208Z,3.07
2022-11-24T11:44:12.296Z,3.07
2022-11-24T11:46:41.431Z,3.07
2022-11-24T11:49:10.839Z,3.08
2022-11-24T11:51:54.733Z,3.05
2022-11-24T11:54:30.143Z,3.08
2022-11-24T11:57:02.278Z,3.10
2022-11-24T11:59:35.853Z,3.08
2022-11-24T12:02:25.667Z,3.11
2022-11-24T12:04:55.498Z,3.09
2022-11-24T12:07:31.145Z,3.08
2022-11-24T12:10:03.477Z,3.11
2022-11-24T12:12:37.972Z,3.13
2022-11-24T12:15:11.160Z,3.13
2022-11-24T12:17:42.142Z,3.12
2022-11-24T12:20:25.163Z,3.11
2022-11-24T12:22:55.537Z,3.10
2022-11-24T12:25:27.758Z,3.10
2022-11-24T12:28:00.844Z,3.05
2022-11-24T12:30:32.251Z,3.06
2022-11-24T12:33:10.018Z,3.04
2022-11-24T12:35:41.039Z,3.05
2022-11-24T12:38:17.389Z,3.08
2022-11-24T12:41:18.135Z,3.08
2022-11-24T12:43:45.825Z,3.12
2022-11-24T12:46:17.587Z,3.10
2022-11-24T12:48:50.244Z,3.12
2022-11-24T12:51:29.373Z,3.12
2022-11-24T12:53:58.949Z,3.08
2022-11-24T12:56:36.889Z,3.06
2022-11-24T12:59:11.797Z,3.07
2022-11-24T13:01:46.289Z,3.07
2022-11-24T13:04:17.083Z,3.06
2022-11-24T13:06:49.834Z,3.10
2022-11-24T13:09:19.694Z,3.08
2022-11-24T13:11:51.157Z,3.08
2022-11-24T13:14:20.998Z,3.08
2022-11-24T13:17:13.462Z,3.07
2022-11-24T13:19:40.989Z,3.02
2022-11-24T13:22:23.965Z,3.05
2022-11-24T13:25:06.343Z,3.04
2022-11-24T13:27:44.813Z,3.04
2022-11-24T13:30:32.350Z,3.04
2022-11-24T13:33:02.932Z,3.00
2022-11-24T13:35:32.146Z,3.00
2022-11-24T13:38:02.047Z,2.97
2022-11-24T13:40:38.507Z,2.93
2022-11-24T13:43:22.554Z,2.94
2022-11-24T13:45:52.509Z,2.96
2022-11-24T13:48:41.068Z,2.95
2022-11-24T13:51:14.635Z,2.96
2022-11-24T13:53:44.725Z,2.92
2022-11-24T13:56:26.224Z,2.91
2022-11-24T13:58:59.090Z,2.90
2022-11-24T14:01:29.609Z,2.90
2022-11-24T14:07:07.320Z,2.89
2022-11-24T14:09:38.608Z,2.86
2022-11-24T14:12:09.051Z,2.88
2022-11-24T14:14:39.948Z,2.88
2022-11-24T14:17:15.331Z,2.89
2022-11-24T14:19:45.405Z,2.88
2022-11-24T14:22:15.857Z,2.88
2022-11-24T14:24:46.899Z,2.90
2022-11-24T14:27:17.070Z,2.89
2022-11-24T14:30:00.211Z,2.91
2022-11-24T14:32:29.627Z,2.91
2022-11-24T14:34:59.185Z,2.91
2022-11-24T14:37:28.450Z,2.90
2022-11-24T14:39:57.827Z,2.89
2022-11-24T14:42:27.427Z,2.87
2022-11-24T14:44:58.758Z,2.85
2022-11-24T14:47:31.839Z,2.87
2022-11-24T14:50:09.700Z,2.87
2022-11-24T14:52:43.093Z,2.86
2022-11-24T14:55:23.809Z,2.86
2022-11-24T14:57:52.912Z,2.86
2022-11-24T15:00:27.310Z,2.87
2022-11-24T15:03:09.017Z,2.88
2022-11-24T15:06:00.617Z,2.86
2022-11-24T15:08:29.949Z,2.83
2022-11-24T15:10:59.896Z,2.85
2022-11-24T15:13:31.658Z,2.86
2022-11-24T15:16:03.542Z,2.86
2022-11-24T15:18:41.147Z,2.87
2022-11-24T15:21:15.616Z,2.87
2022-11-24T15:27:49.505Z,2.87
2022-11-24T15:30:19.198Z,2.88
2022-11-24T15:33:09.499Z,2.86
2022-11-24T15:39:13.478Z,2.87
2022-11-24T15:41:43.411Z,2.88
2022-11-24T15:44:12.457Z,2.86
2022-11-24T15:46:41.959Z,2.85
2022-11-24T15:49:11.114Z,2.85
2022-11-24T15:51:40.543Z,2.83
2022-11-24T15:54:10.458Z,2.83
2022-11-24T15:56:42.102Z,2.80
2022-11-24T15:59:15.506Z,2.81
2022-11-24T16:01:50.031Z,2.79
2022-11-24T16:04:19.418Z,2.76
2022-11-24T16:06:49.001Z,2.75
2022-11-24T16:09:18.594Z,2.73
2022-11-24T16:11:49.531Z,2.72
2022-11-24T16:14:27.913Z,2.71
2022-11-24T16:16:57.810Z,2.70
2022-11-24T16:19:26.908Z,2.69
2022-11-24T16:21:56.316Z,2.66
2022-11-24T16:24:25.373Z,2.62
2022-11-24T16:26:56.153Z,2.64
2022-11-24T16:29:25.165Z,2.62
2022-11-24T16:31:54.648Z,2.61
2022-11-24T16:34:23.912Z,2.60
2022-11-24T16:36:53.394Z,2.60
2022-11-24T16:39:22.480Z,2.62
2022-11-24T16:41:51.985Z,2.60
2022-11-24T16:44:22.523Z,2.60
2022-11-24T16:46:52.069Z,2.60
2022-11-24T16:49:21.221Z,2.60
2022-11-24T16:51:50.705Z,2.59
2022-11-24T16:54:19.975Z,2.60
2022-11-24T16:56:49.396Z,2.61
2022-11-24T16:59:18.513Z,2.62
2022-11-24T17:01:50.812Z,2.63
2022-11-24T17:04:19.985Z,2.62
2022-11-24T17:06:49.319Z,2.62
2022-11-24T17:09:19.032Z,2.62
2022-11-24T17:11:48.512Z,2.62
2022-11-24T17:14:17.569Z,2.62
2022-11-24T17:16:47.045Z,2.61
2022-11-24T17:19:17.562Z,2.62
2022-11-24T17:21:47.104Z,2.63
2022-11-24T17:24:17.877Z,2.62
2022-11-24T17:26:51.856Z,2.62
2022-11-24T17:29:21.030Z,2.62
2022-11-24T17:31:50.504Z,2.63
2022-11-24T17:34:21.128Z,2.64
2022-11-24T17:36:50.522Z,2.64
2022-11-24T17:39:24.532Z,2.63
2022-11-24T17:41:54.557Z,2.62
2022-11-24T17:44:23.796Z,2.61
2022-11-24T17:46:53.164Z,2.61
2022-11-24T17:49:23.611Z,2.62
2022-11-24T17:51:53.016Z,2.62
2022-11-24T17:54:45.234Z,2.61
2022-11-24T17:57:11.422Z,2.61
2022-11-24T17:59:40.580Z,2.59
2022-11-24T18:02:10.376Z,2.59
2022-11-24T18:04:40.996Z,2.57
2022-11-24T18:07:10.499Z,2.57
2022-11-24T18:09:39.691Z,2.58
2022-11-24T18:12:09.472Z,2.58
2022-11-24T18:14:38.619Z,2.58
2022-11-24T18:17:39.845Z,2.56
2022-11-24T18:20:11.057Z,2.53
2022-11-24T18:23:04.706Z,2.51
2022-11-24T18:25:31.144Z,2.50
2022-11-24T18:28:00.544Z,2.51
2022-11-24T18:30:29.665Z,2.49
2022-11-24T18:32:59.659Z,2.49
2022-11-24T18:35:36.275Z,2.47
2022-11-24T18:38:05.751Z,2.48
2022-11-24T18:40:34.906Z,2.50
2022-11-24T18:43:04.678Z,2.48
2022-11-24T18:45:33.789Z,2.46
2022-11-24T18:48:03.352Z,2.45
2022-11-24T18:50:33.353Z,2.44
2022-11-24T18:53:04.267Z,2.45
2022-11-24T18:55:33.423Z,2.46
2022-11-24T18:58:03.056Z,2.44
2022-11-24T19:00:33.636Z,2.43
2022-11-24T19:03:03.341Z,2.43
2022-11-24T19:05:32.630Z,2.41
2022-11-24T19:08:03.570Z,2.41
2022-11-24T19:10:32.698Z,2.40
2022-11-24T19:13:02.223Z,2.43
2022-11-24T19:15:33.145Z,2.43
2022-11-24T19:18:02.798Z,2.42
2022-11-24T19:20:31.891Z,2.42
2022-11-24T19:23:01.335Z,2.43
2022-11-24T19:25:32.091Z,2.40
2022-11-24T19:28:01.631Z,2.40
2022-11-24T19:30:33.069Z,2.35
2022-11-24T19:33:02.536Z,2.36
2022-11-24T19:35:31.652Z,2.33
2022-11-24T19:38:01.091Z,2.34
2022-11-24T19:40:34.430Z,2.35
2022-11-24T19:43:11.304Z,2.33
2022-11-24T19:45:44.575Z,2.36
2022-11-24T19:48:14.234Z,2.38
2022-11-24T19:50:47.203Z,2.40
2022-11-24T19:53:32.057Z,2.45
2022-11-24T20:07:23.516Z,2.47
2022-11-24T20:09:52.977Z,2.48
2022-11-24T20:12:22.092Z,2.45
2022-11-24T20:14:51.596Z,2.47
2022-11-24T20:17:20.677Z,2.45
2022-11-24T20:19:50.138Z,2.45
2022-11-24T20:22:19.176Z,2.46
2022-11-24T20:24:50.221Z,2.46
2022-11-24T20:27:19.326Z,2.42
2022-11-24T20:29:48.821Z,2.42
2022-11-24T20:32:20.416Z,2.37
2022-11-24T20:34:49.888Z,2.42
2022-11-24T20:37:19.044Z,2.40
2022-11-24T20:39:48.720Z,2.40
2022-11-24T20:42:19.223Z,2.38
2022-11-24T20:44:48.790Z,2.33
2022-11-24T20:47:17.875Z,2.33
2022-11-24T20:49:47.506Z,2.33
2022-11-24T20:52:16.623Z,2.34
2022-11-24T20:54:46.998Z,2.35
2022-11-24T20:57:16.082Z,2.38
2022-11-24T20:59:46.942Z,2.40
2022-11-24T21:02:16.111Z,2.42
2022-11-24T21:04:45.717Z,2.45
2022-11-24T21:07:15.986Z,2.45
2022-11-24T21:09:45.575Z,2.46
2022-11-24T21:12:14.794Z,2.46
2022-11-24T21:14:44.308Z,2.48
2022-11-24T21:17:15.134Z,2.49
2022-11-24T21:19:44.712Z,2.49
2022-11-24T21:22:13.890Z,2.51
2022-11-24T21:24:43.461Z,2.53
2022-11-24T21:27:12.644Z,2.53
2022-11-24T21:29:42.158Z,2.54
2022-11-24T21:32:11.309Z,2.51
2022-11-24T21:34:42.238Z,2.55
2022-11-24T21:37:11.281Z,2.57
2022-11-24T21:39:44.689Z,2.57
2022-11-24T21:42:13.982Z,2.54
2022-11-24T21:44:43.583Z,2.58
2022-11-24T21:47:12.893Z,2.57
2022-11-24T21:49:44.302Z,2.60
2022-11-24T21:52:13.752Z,2.62
2022-11-24T21:54:43.305Z,2.62
2022-11-24T21:57:12.466Z,2.65
2022-11-24T21:59:41.985Z,2.63
2022-11-24T22:02:13.119Z,2.65
2022-11-24T22:04:44.584Z,2.64
2022-11-24T22:07:13.807Z,2.65
2022-11-24T22:09:43.397Z,2.65
2022-11-24T22:12:12.466Z,2.67
2022-11-24T22:14:42.315Z,2.69
2022-11-24T22:17:13.476Z,2.70
2022-11-24T22:19:44.413Z,2.73
2022-11-24T22:22:13.529Z,2.76
2022-11-24T22:24:43.099Z,2.75
2022-11-24T22:27:12.179Z,2.76
2022-11-24T22:44:55.085Z,2.86
2022-11-24T22:47:24.651Z,2.88
2022-11-24T22:49:53.742Z,2.91
2022-11-24T22:52:23.271Z,2.92
2022-11-24T22:54:52.455Z,2.92
2022-11-24T22:57:21.856Z,2.96
2022-11-24T22:59:50.995Z,2.97
2022-11-24T23:02:22.464Z,2.98
2022-11-24T23:04:51.507Z,3.02
2022-11-24T23:07:20.848Z,3.05
2022-11-24T23:09:49.957Z,3.07
2022-11-24T23:12:19.470Z,3.10
2022-11-24T23:15:09.117Z,3.11
2022-11-24T23:17:48.039Z,3.13
2022-11-24T23:20:17.131Z,3.14
2022-11-24T23:22:46.763Z,3.16
2022-11-24T23:25:15.799Z,3.17
2022-11-24T23:27:46.741Z,3.17
2022-11-24T23:30:15.860Z,3.17
2022-11-24T23:32:46.699Z,3.18
2022-11-24T23:35:15.769Z,3.20
2022-11-24T23:38:06.571Z,3.22
2022-11-24T23:40:34.210Z,3.22
2022-11-24T23:43:13.509Z,3.23
2022-11-24T23:45:49.763Z,3.24
2022-11-24T23:48:20.724Z,3.24
2022-11-24T23:50:49.949Z,3.25
2022-11-24T23:53:19.230Z,3.25
2022-11-24T23:55:53.396Z,3.25
2022-11-24T23:58:22.852Z,3.27
